createdAt,value
2022-10-29T00:04:58.028Z,1.77
2022-10-29T00:10:03.333Z,1.80
2022-10-29T00:15:07.575Z,1.60
2022-10-29T00:20:11.706Z,1.55
2022-10-29T00:25:17.042Z,1.70
2022-10-29T00:35:24.110Z,1.40
2022-10-29T00:40:29.264Z,1.85
2022-10-29T00:45:32.919Z,1.90
2022-10-29T00:50:36.986Z,1.58
2022-10-29T00:55:42.232Z,1.73
2022-10-29T01:00:46.089Z,1.70
2022-10-29T01:05:50.444Z,2.42
2022-10-29T01:11:03.875Z,2.17
2022-10-29T01:16:18.725Z,2.00
2022-10-29T01:21:54.401Z,1.98
2022-10-29T01:27:40.562Z,1.90
2022-10-29T01:32:54.438Z,1.73
2022-10-29T01:38:12.144Z,2.15
2022-10-29T01:48:34.548Z,2.25
2022-10-29T01:53:39.806Z,2.20
2022-10-29T01:58:48.332Z,2.20
2022-10-29T02:04:03.153Z,2.15
2022-10-29T02:09:16.180Z,2.00
2022-10-29T02:14:26.594Z,2.20
2022-10-29T02:19:33.609Z,1.80
2022-10-29T02:24:37.152Z,2.20
2022-10-29T02:29:40.709Z,2.17
2022-10-29T02:34:45.855Z,2.28
2022-10-29T02:39:49.388Z,2.83
2022-10-29T02:44:53.613Z,2.80
2022-10-29T02:49:59.505Z,3.00
2022-10-29T03:00:06.896Z,2.40
2022-10-29T03:05:12.213Z,2.70
2022-10-29T03:10:15.837Z,2.30
2022-10-29T03:15:19.377Z,1.90
2022-10-29T03:20:24.562Z,1.85
2022-10-29T03:25:28.121Z,2.50
2022-10-29T03:30:32.424Z,2.30
2022-10-29T03:35:37.673Z,2.35
2022-10-29T03:40:42.072Z,2.30
2022-10-29T03:45:45.631Z,2.22
2022-10-29T03:50:57.741Z,1.80
2022-10-29T03:56:01.316Z,2.20
2022-10-29T04:01:06.304Z,2.45
2022-10-29T04:06:16.052Z,2.20
2022-10-29T04:11:19.671Z,2.50
2022-10-29T04:16:23.265Z,2.17
2022-10-29T04:23:25.390Z,2.47
2022-10-29T04:32:15.577Z,1.98
2022-10-29T04:37:20.784Z,2.10
2022-10-29T04:42:24.351Z,2.00
2022-10-29T04:47:27.879Z,2.03
2022-10-29T04:52:33.070Z,2.10
2022-10-29T04:57:36.623Z,2.17
2022-10-29T05:02:40.146Z,2.17
2022-10-29T05:07:45.405Z,1.67
2022-10-29T05:12:48.931Z,1.43
2022-10-29T05:17:52.631Z,1.80
2022-10-29T05:23:02.604Z,1.98
2022-10-29T05:28:08.297Z,2.03
2022-10-29T05:33:13.328Z,1.85
2022-10-29T05:38:18.762Z,1.70
2022-10-29T05:43:22.291Z,1.87
2022-10-29T05:48:25.834Z,2.10
2022-10-29T05:53:31.922Z,2.20
2022-10-29T05:58:35.558Z,2.30
2022-10-29T06:03:39.446Z,2.08
2022-10-29T06:08:45.616Z,2.13
2022-10-29T06:13:49.894Z,2.33
2022-10-29T06:18:53.423Z,1.90
2022-10-29T06:23:58.580Z,2.20
2022-10-29T06:29:02.243Z,2.22
2022-10-29T06:34:05.895Z,2.60
2022-10-29T06:39:11.068Z,2.00
2022-10-29T06:44:14.603Z,2.40
2022-10-29T06:49:18.135Z,1.90
2022-10-29T06:54:24.319Z,2.10
2022-10-29T07:04:30.703Z,1.85
2022-10-29T07:09:35.869Z,2.40
2022-10-29T07:14:39.430Z,2.53
2022-10-29T07:19:42.952Z,2.20
2022-10-29T07:24:48.131Z,1.88
2022-10-29T07:29:51.675Z,2.25
2022-10-29T07:34:55.247Z,2.25
2022-10-29T07:40:00.533Z,1.88
2022-10-29T07:45:04.279Z,2.15
2022-10-29T07:50:08.765Z,2.08
2022-10-29T07:55:16.550Z,2.20
2022-10-29T08:00:20.218Z,2.10
2022-10-29T08:05:24.292Z,1.92
2022-10-29T08:10:30.376Z,2.08
2022-10-29T08:15:34.741Z,2.05
2022-10-29T08:20:38.426Z,1.60
2022-10-29T08:25:43.770Z,1.98
2022-10-29T08:30:50.792Z,2.00
2022-10-29T08:35:54.354Z,2.00
2022-10-29T08:41:30.798Z,1.80
2022-10-29T08:46:44.701Z,2.20
2022-10-29T08:51:54.669Z,2.22
2022-10-29T08:57:05.260Z,1.85
2022-10-29T09:02:16.928Z,1.85
2022-10-29T09:07:35.398Z,2.00
2022-10-29T09:13:11.149Z,2.10
2022-10-29T09:18:30.632Z,2.00
2022-10-29T09:23:53.137Z,2.33
2022-10-29T09:29:14.636Z,2.05
2022-10-29T09:34:23.641Z,1.90
2022-10-29T09:39:34.329Z,2.03
2022-10-29T09:44:46.786Z,2.05
2022-10-29T09:50:05.380Z,1.88
2022-10-29T09:55:21.500Z,2.30
2022-10-29T10:00:29.839Z,2.20
2022-10-29T10:05:35.072Z,2.50
2022-10-29T10:10:50.593Z,2.10
2022-10-29T10:15:57.602Z,2.20
2022-10-29T10:21:04.463Z,2.30
2022-10-29T10:26:29.501Z,2.00
2022-10-29T10:31:34.661Z,1.90
2022-10-29T10:36:41.594Z,2.10
2022-10-29T10:41:45.208Z,2.50
2022-10-29T10:46:52.643Z,2.00
2022-10-29T10:51:58.648Z,2.30
2022-10-29T10:57:03.611Z,2.20
2022-10-29T11:02:21.387Z,2.05
2022-10-29T11:07:28.148Z,2.30
2022-10-29T11:12:37.608Z,2.15
2022-10-29T11:17:54.063Z,2.17
2022-10-29T11:23:22.970Z,2.22
2022-10-29T11:28:34.146Z,2.25
2022-10-29T11:33:47.763Z,2.53
2022-10-29T11:38:57.239Z,2.25
2022-10-29T11:44:00.860Z,2.40
2022-10-29T11:49:21.974Z,2.70
2022-10-29T11:54:46.181Z,2.42
2022-10-29T12:00:05.094Z,2.50
2022-10-29T12:05:20.181Z,2.53
2022-10-29T12:10:33.128Z,2.17
2022-10-29T12:15:42.177Z,2.65
2022-10-29T12:20:55.456Z,2.42
2022-10-29T12:26:08.013Z,2.50
2022-10-29T12:31:22.890Z,2.60
2022-10-29T12:36:39.329Z,2.50
2022-10-29T12:41:48.078Z,2.53
2022-10-29T12:47:00.163Z,2.30
2022-10-29T12:52:12.520Z,2.28
2022-10-29T12:57:30.367Z,2.50
2022-10-29T13:02:46.375Z,2.20
2022-10-29T13:08:18.860Z,2.60
2022-10-29T13:13:36.740Z,2.58
2022-10-29T13:18:50.092Z,2.50
2022-10-29T13:24:06.057Z,2.45
2022-10-29T13:29:09.572Z,2.80
2022-10-29T13:34:27.609Z,2.55
2022-10-29T13:39:32.804Z,2.40
2022-10-29T13:44:39.517Z,2.33
2022-10-29T13:49:45.874Z,2.42
2022-10-29T13:54:54.969Z,2.42
2022-10-29T14:00:04.308Z,2.40
2022-10-29T14:05:17.974Z,2.33
2022-10-29T14:10:27.666Z,2.38
2022-10-29T14:15:31.285Z,2.38
2022-10-29T14:20:34.922Z,2.42
2022-10-29T14:25:40.086Z,2.05
2022-10-29T14:30:44.057Z,2.03
2022-10-29T14:35:48.724Z,2.10
2022-10-29T14:40:53.908Z,2.15
2022-10-29T14:46:09.512Z,2.05
2022-10-29T14:51:20.236Z,2.35
2022-10-29T14:56:33.348Z,2.45
2022-10-29T15:01:47.221Z,2.35
2022-10-29T15:06:50.946Z,2.50
2022-10-29T15:12:04.248Z,2.33
2022-10-29T15:17:11.702Z,2.60
2022-10-29T15:22:21.589Z,2.60
2022-10-29T15:27:27.220Z,2.50
2022-10-29T15:32:31.638Z,2.83
2022-10-29T15:37:43.802Z,2.65
2022-10-29T15:42:49.326Z,2.75
2022-10-29T15:47:56.455Z,2.40
2022-10-29T15:53:01.799Z,2.75
2022-10-29T15:58:11.837Z,2.42
2022-10-29T16:03:16.788Z,2.50
2022-10-29T16:08:26.157Z,2.78
2022-10-29T16:13:33.114Z,2.58
2022-10-29T16:18:36.752Z,2.50
2022-10-29T16:23:40.475Z,2.45
2022-10-29T16:28:54.858Z,2.90
2022-10-29T16:34:00.178Z,2.85
2022-10-29T16:39:04.396Z,2.87
2022-10-29T16:44:09.769Z,3.50
2022-10-29T16:49:13.299Z,3.20
2022-10-29T16:54:16.973Z,3.38
2022-10-29T16:59:22.178Z,3.05
2022-10-29T17:04:25.808Z,3.40
2022-10-29T17:09:29.726Z,3.65
2022-10-29T17:14:35.017Z,3.33
2022-10-29T17:19:38.547Z,4.37
2022-10-29T17:24:42.097Z,3.60
2022-10-29T17:29:47.316Z,3.60
2022-10-29T17:34:51.110Z,4.20
2022-10-29T17:39:54.707Z,3.80
2022-10-29T17:44:59.889Z,3.92
2022-10-29T17:50:03.450Z,3.97
2022-10-29T17:55:07.913Z,3.72
2022-10-29T18:00:15.596Z,3.70
2022-10-29T18:05:19.728Z,4.50
2022-10-29T18:10:23.284Z,4.28
2022-10-29T18:15:28.560Z,3.63
2022-10-29T18:20:32.097Z,4.78
2022-10-29T18:25:35.634Z,3.50
2022-10-29T18:30:40.799Z,4.75
2022-10-29T18:35:44.331Z,4.57
2022-10-29T18:40:55.019Z,4.10
2022-10-29T18:46:01.793Z,4.15
2022-10-29T18:51:07.356Z,4.30
2022-10-29T19:01:17.455Z,4.53
2022-10-29T19:06:21.441Z,5.18
2022-10-29T19:11:27.100Z,4.32
2022-10-29T19:16:33.385Z,4.50
2022-10-29T19:21:37.651Z,4.72
2022-10-29T19:26:41.568Z,5.80
2022-10-29T19:31:47.500Z,5.57
2022-10-29T19:36:51.087Z,5.28
2022-10-29T19:41:54.845Z,4.63
2022-10-29T19:47:00.039Z,5.15
2022-10-29T19:52:03.604Z,5.25
2022-10-29T19:57:07.245Z,5.20
2022-10-29T20:02:12.603Z,4.90
2022-10-29T20:12:19.190Z,5.05
2022-10-29T20:17:24.373Z,5.43
2022-10-29T20:22:30.398Z,5.60
2022-10-29T20:27:33.939Z,5.60
2022-10-29T20:32:40.126Z,5.15
2022-10-29T20:37:43.689Z,5.35
2022-10-29T20:42:50.499Z,5.88
2022-10-29T20:47:56.080Z,5.28
2022-10-29T20:53:00.077Z,6.30
2022-10-29T20:58:03.714Z,5.88
2022-10-29T21:03:08.918Z,5.50
2022-10-29T21:08:12.506Z,5.53
2022-10-29T21:13:16.117Z,5.40
2022-10-29T21:18:21.334Z,5.75
2022-10-29T21:23:24.984Z,6.28
2022-10-29T21:28:28.558Z,5.38
2022-10-29T21:33:33.925Z,6.15
2022-10-29T21:38:37.784Z,6.05
2022-10-29T21:43:50.792Z,6.20
2022-10-29T21:53:58.968Z,5.30
2022-10-29T21:59:04.209Z,5.22
2022-10-29T22:09:10.661Z,5.43
2022-10-29T22:14:15.830Z,10.55
2022-10-29T22:19:19.369Z,12.88
2022-10-29T22:24:22.936Z,18.58
2022-10-29T22:29:28.130Z,21.80
2022-10-29T22:34:31.658Z,16.52
2022-10-29T22:39:37.780Z,13.63
2022-10-29T22:44:42.957Z,11.00
2022-10-29T22:49:46.500Z,9.80
2022-10-29T22:54:50.032Z,8.73
2022-10-29T22:59:55.267Z,7.82
2022-10-29T23:04:58.980Z,6.95
2022-10-29T23:10:02.557Z,8.10
2022-10-29T23:15:08.404Z,8.93
2022-10-29T23:20:12.198Z,10.10
2022-10-29T23:25:16.330Z,9.32
2022-10-29T23:30:21.540Z,8.75
2022-10-29T23:35:25.116Z,8.38
2022-10-29T23:40:28.642Z,7.97
2022-10-29T23:45:33.817Z,7.20
2022-10-29T23:50:37.535Z,7.10
2022-10-29T23:55:42.467Z,6.95
